createdAt,value
2022-12-19T00:02:12.789Z,1.94
2022-12-19T00:04:43.153Z,2.00
2022-12-19T00:07:13.475Z,2.05
2022-12-19T00:09:43.989Z,1.97
2022-12-19T00:12:18.993Z,1.88
2022-12-19T00:14:50.723Z,1.80
2022-12-19T00:17:23.617Z,1.73
2022-12-19T00:19:54.408Z,1.56
2022-12-19T00:22:24.802Z,1.41
2022-12-19T00:24:55.188Z,1.32
2022-12-19T00:27:25.486Z,1.18
2022-12-19T00:29:55.800Z,1.14
2022-12-19T00:32:28.768Z,1.10
2022-12-19T00:34:59.178Z,1.11
2022-12-19T00:37:31.384Z,1.14
2022-12-19T00:40:01.671Z,1.12
2022-12-19T00:42:32.312Z,1.02
2022-12-19T00:45:04.227Z,0.92
2022-12-19T00:47:38.142Z,0.88
2022-12-19T00:50:09.435Z,0.81
2022-12-19T00:52:39.426Z,0.77
2022-12-19T00:55:16.398Z,0.70
2022-12-19T00:57:49.529Z,0.64
2022-12-19T01:00:23.025Z,0.44
2022-12-19T01:02:56.207Z,0.43
2022-12-19T01:05:26.524Z,0.35
2022-12-19T01:07:56.876Z,0.26
2022-12-19T01:10:27.212Z,0.22
2022-12-19T01:12:55.046Z,0.22
2022-12-19T01:15:25.419Z,0.17
2022-12-19T01:17:58.301Z,0.11
2022-12-19T01:20:29.449Z,0.03
2022-12-19T01:23:01.112Z,0.03
2022-12-19T01:25:32.241Z,0.01
2022-12-19T01:28:04.320Z,0.01
2022-12-19T01:30:36.836Z,-0.14
2022-12-19T01:33:14.931Z,-0.10
2022-12-19T01:35:46.833Z,-0.11
2022-12-19T01:38:19.138Z,-0.16
2022-12-19T01:40:54.230Z,-0.21
2022-12-19T01:43:25.729Z,-0.23
2022-12-19T01:46:00.456Z,-0.31
2022-12-19T01:48:38.334Z,-0.38
2022-12-19T01:51:17.164Z,-0.34
2022-12-19T01:53:53.149Z,-0.23
2022-12-19T01:56:29.114Z,-0.22
2022-12-19T01:59:06.444Z,-0.27
2022-12-19T02:01:51.746Z,-0.29
2022-12-19T02:04:32.158Z,-0.31
2022-12-19T02:07:15.900Z,-0.35
2022-12-19T02:09:50.582Z,-0.35
2022-12-19T02:12:32.587Z,-0.32
2022-12-19T02:15:05.116Z,-0.38
2022-12-19T02:17:46.658Z,-0.37
2022-12-19T02:21:12.695Z,-0.37
2022-12-19T02:24:28.501Z,-0.53
2022-12-19T02:27:12.411Z,-0.60
2022-12-19T02:30:10.613Z,-0.62
2022-12-19T02:32:59.755Z,-0.65
2022-12-19T02:35:37.141Z,-0.59
2022-12-19T02:38:17.998Z,-0.61
2022-12-19T02:40:55.638Z,-0.58
2022-12-19T02:43:31.677Z,-0.49
2022-12-19T02:46:04.102Z,-0.38
2022-12-19T02:48:41.268Z,-0.22
2022-12-19T02:51:12.147Z,-0.11
2022-12-19T02:53:43.171Z,-0.07
2022-12-19T02:56:37.324Z,-0.05
2022-12-19T02:59:28.659Z,0.02
2022-12-19T03:02:05.760Z,0.04
2022-12-19T03:04:55.649Z,-0.18
2022-12-19T03:07:37.475Z,-0.25
2022-12-19T03:10:27.661Z,-0.37
2022-12-19T03:13:03.931Z,-0.33
2022-12-19T03:15:36.510Z,-0.21
2022-12-19T03:18:07.354Z,-0.14
2022-12-19T03:20:53.098Z,-0.17
2022-12-19T03:23:23.805Z,-0.15
2022-12-19T03:25:58.939Z,-0.20
2022-12-19T03:28:38.154Z,-0.19
2022-12-19T03:31:10.702Z,-0.24
2022-12-19T03:33:44.294Z,-0.30
2022-12-19T03:36:24.275Z,-0.39
2022-12-19T03:38:55.810Z,-0.38
2022-12-19T03:41:41.838Z,-0.36
2022-12-19T03:44:13.621Z,-0.33
2022-12-19T03:46:50.101Z,-0.32
2022-12-19T03:49:20.571Z,-0.31
2022-12-19T03:52:00.942Z,-0.31
2022-12-19T03:54:36.138Z,-0.31
2022-12-19T03:57:13.518Z,-0.31
2022-12-19T03:59:51.279Z,-0.28
2022-12-19T04:02:24.066Z,-0.30
2022-12-19T04:04:58.427Z,-0.32
2022-12-19T04:07:31.742Z,-0.29
2022-12-19T04:10:04.555Z,-0.29
2022-12-19T04:12:41.394Z,-0.27
2022-12-19T04:15:13.786Z,-0.31
2022-12-19T04:17:50.921Z,-0.29
2022-12-19T04:20:24.371Z,-0.33
2022-12-19T04:23:03.494Z,-0.32
2022-12-19T04:25:39.054Z,-0.30
2022-12-19T04:28:19.144Z,-0.27
2022-12-19T04:30:50.559Z,-0.25
2022-12-19T04:33:20.921Z,-0.21
2022-12-19T04:35:51.529Z,-0.21
2022-12-19T04:38:24.579Z,-0.23
2022-12-19T04:40:54.872Z,-0.25
2022-12-19T04:43:25.120Z,-0.24
2022-12-19T04:45:57.546Z,-0.29
2022-12-19T04:48:28.815Z,-0.24
2022-12-19T04:51:00.055Z,-0.19
2022-12-19T04:53:33.199Z,-0.18
2022-12-19T04:56:04.234Z,-0.13
2022-12-19T04:58:35.294Z,-0.23
2022-12-19T05:01:06.449Z,-0.17
2022-12-19T05:03:37.823Z,-0.14
2022-12-19T05:06:11.360Z,-0.16
2022-12-19T05:08:46.327Z,-0.17
2022-12-19T05:11:19.890Z,-0.11
2022-12-19T05:13:50.837Z,-0.13
2022-12-19T05:16:21.240Z,-0.09
2022-12-19T05:18:51.540Z,-0.08
2022-12-19T05:21:21.836Z,-0.12
2022-12-19T05:23:54.786Z,-0.07
2022-12-19T05:26:25.219Z,-0.01
2022-12-19T05:28:55.456Z,0.01
2022-12-19T05:31:25.806Z,0.07
2022-12-19T05:33:56.053Z,0.11
2022-12-19T05:36:32.140Z,0.15
2022-12-19T05:39:05.426Z,0.19
2022-12-19T05:41:35.781Z,0.25
2022-12-19T05:44:06.186Z,0.29
2022-12-19T05:46:36.623Z,0.30
2022-12-19T05:49:07.022Z,0.36
2022-12-19T05:51:37.619Z,0.41
2022-12-19T05:54:10.640Z,0.37
2022-12-19T05:56:40.974Z,0.44
2022-12-19T05:59:11.439Z,0.44
2022-12-19T06:01:42.270Z,0.50
2022-12-19T06:04:12.731Z,0.55
2022-12-19T06:06:43.039Z,0.55
2022-12-19T06:09:15.997Z,0.56
2022-12-19T06:11:46.324Z,0.62
2022-12-19T06:14:16.633Z,0.63
2022-12-19T06:16:46.955Z,0.64
2022-12-19T06:19:17.680Z,0.72
2022-12-19T06:21:48.693Z,0.77
2022-12-19T06:24:21.777Z,0.83
2022-12-19T06:26:52.107Z,0.81
2022-12-19T06:29:22.765Z,0.72
2022-12-19T06:31:53.413Z,0.66
2022-12-19T06:34:54.914Z,0.68
2022-12-19T06:37:15.484Z,0.74
2022-12-19T06:39:48.484Z,0.82
2022-12-19T06:42:24.794Z,0.92
2022-12-19T06:44:56.638Z,0.97
2022-12-19T06:47:27.720Z,1.01
2022-12-19T06:49:58.088Z,1.02
2022-12-19T06:52:28.388Z,1.08
2022-12-19T06:55:01.674Z,1.11
2022-12-19T06:57:31.964Z,1.12
2022-12-19T07:00:02.266Z,1.20
2022-12-19T07:02:35.179Z,1.18
2022-12-19T07:05:10.186Z,1.22
2022-12-19T07:07:41.449Z,1.27
2022-12-19T07:10:15.802Z,1.33
2022-12-19T07:12:46.192Z,1.37
2022-12-19T07:15:16.736Z,1.44
2022-12-19T07:17:47.157Z,1.50
2022-12-19T07:20:19.319Z,1.51
2022-12-19T07:22:51.317Z,1.55
2022-12-19T07:25:24.429Z,1.61
2022-12-19T07:27:56.139Z,1.68
2022-12-19T07:30:26.480Z,1.74
2022-12-19T07:32:57.411Z,1.79
2022-12-19T07:35:28.272Z,1.83
2022-12-19T07:38:04.612Z,1.84
2022-12-19T07:40:38.338Z,1.84
2022-12-19T07:43:09.958Z,1.87
2022-12-19T07:45:41.414Z,1.95
2022-12-19T07:48:11.805Z,2.01
2022-12-19T07:50:42.614Z,2.09
2022-12-19T07:53:12.989Z,2.11
2022-12-19T07:55:45.968Z,2.20
2022-12-19T07:58:19.065Z,2.29
2022-12-19T08:00:49.515Z,2.26
2022-12-19T08:03:19.932Z,2.35
2022-12-19T08:05:50.340Z,2.40
2022-12-19T08:08:21.541Z,2.39
2022-12-19T08:10:54.629Z,2.54
2022-12-19T08:13:25.118Z,2.61
2022-12-19T08:15:55.515Z,2.63
2022-12-19T08:18:26.060Z,2.68
2022-12-19T08:20:56.489Z,2.73
2022-12-19T08:23:27.697Z,2.67
2022-12-19T08:26:08.113Z,2.70
2022-12-19T08:28:40.138Z,2.81
2022-12-19T08:31:12.893Z,2.87
2022-12-19T08:33:43.612Z,2.85
2022-12-19T08:36:17.041Z,2.89
2022-12-19T08:38:47.754Z,3.04
2022-12-19T08:41:21.472Z,3.09
2022-12-19T08:43:53.431Z,3.14
2022-12-19T08:46:24.742Z,3.18
2022-12-19T08:48:54.814Z,3.24
2022-12-19T08:51:25.844Z,3.39
2022-12-19T08:53:56.654Z,3.43
2022-12-19T08:56:29.644Z,3.46
2022-12-19T08:58:59.938Z,3.55
2022-12-19T09:01:30.462Z,3.53
2022-12-19T09:04:02.732Z,3.52
2022-12-19T09:06:53.304Z,3.67
2022-12-19T09:09:23.678Z,3.74
2022-12-19T09:11:56.669Z,3.80
2022-12-19T09:14:27.001Z,3.86
2022-12-19T09:16:57.726Z,3.96
2022-12-19T09:19:29.926Z,4.06
2022-12-19T09:22:00.488Z,4.17
2022-12-19T09:24:31.109Z,4.28
2022-12-19T09:27:04.132Z,4.38
2022-12-19T09:29:35.834Z,4.44
2022-12-19T09:32:06.574Z,4.50
2022-12-19T09:34:38.970Z,4.54
2022-12-19T09:37:16.042Z,4.62
2022-12-19T09:39:47.002Z,4.64
2022-12-19T09:42:59.454Z,4.68
2022-12-19T09:45:44.643Z,4.75
2022-12-19T09:48:24.623Z,4.81
2022-12-19T09:51:10.057Z,4.89
2022-12-19T09:53:54.424Z,4.96
2022-12-19T09:56:30.021Z,4.98
2022-12-19T09:59:16.887Z,5.10
2022-12-19T10:01:59.934Z,5.24
2022-12-19T10:04:34.637Z,5.46
2022-12-19T10:07:16.374Z,5.59
2022-12-19T10:12:36.495Z,5.70
2022-12-19T10:13:12.833Z,5.80
2022-12-19T10:16:00.450Z,5.84
2022-12-19T10:18:48.422Z,5.93
2022-12-19T10:22:08.082Z,5.94
2022-12-19T10:25:08.640Z,5.84
2022-12-19T10:27:59.446Z,5.82
2022-12-19T10:30:32.214Z,5.74
2022-12-19T10:33:20.641Z,5.48
2022-12-19T10:36:02.110Z,5.41
2022-12-19T10:38:40.550Z,5.36
2022-12-19T10:41:26.167Z,5.26
2022-12-19T10:44:06.029Z,5.26
2022-12-19T10:46:42.920Z,5.04
2022-12-19T10:49:22.087Z,4.93
2022-12-19T10:52:04.975Z,4.94
2022-12-19T10:54:45.775Z,4.99
2022-12-19T10:57:28.030Z,5.01
2022-12-19T11:00:04.177Z,5.02
2022-12-19T11:02:44.945Z,4.99
2022-12-19T11:05:33.185Z,4.98
2022-12-19T11:08:06.389Z,4.94
2022-12-19T11:12:28.633Z,5.06
2022-12-19T11:18:56.752Z,5.13
2022-12-19T11:21:54.542Z,5.17
2022-12-19T11:29:25.026Z,5.19
2022-12-19T11:29:34.221Z,5.24
2022-12-19T11:30:26.153Z,5.24
2022-12-19T11:30:59.589Z,5.25
2022-12-19T11:34:19.213Z,5.35
2022-12-19T11:36:55.894Z,5.37
2022-12-19T11:39:36.956Z,5.38
2022-12-19T11:42:15.395Z,5.30
2022-12-19T11:44:53.849Z,5.26
2022-12-19T11:47:38.922Z,5.26
2022-12-19T11:50:18.570Z,5.25
2022-12-19T11:53:04.490Z,5.24
2022-12-19T11:55:45.888Z,5.24
2022-12-19T11:58:17.159Z,5.20
2022-12-19T12:00:54.419Z,5.24
2022-12-19T12:04:01.032Z,5.25
2022-12-19T12:06:38.570Z,5.22
2022-12-19T12:12:35.942Z,5.25
2022-12-19T12:19:06.838Z,5.22
2022-12-19T12:30:06.479Z,5.22
2022-12-19T12:31:05.267Z,5.23
2022-12-19T12:31:30.804Z,5.18
2022-12-19T12:31:42.403Z,5.18
2022-12-19T12:32:02.270Z,5.18
2022-12-19T12:35:38.055Z,5.13
2022-12-19T12:35:47.062Z,5.18
2022-12-19T12:38:22.636Z,5.09
2022-12-19T12:41:12.730Z,5.08
2022-12-19T12:44:09.393Z,5.13
2022-12-19T12:46:46.107Z,5.13
2022-12-19T12:49:38.973Z,5.10
2022-12-19T12:52:12.903Z,5.08
2022-12-19T12:54:48.340Z,5.13
2022-12-19T12:57:36.816Z,5.15
2022-12-19T13:00:37.861Z,5.11
2022-12-19T13:03:14.588Z,5.11
2022-12-19T13:05:57.314Z,5.08
2022-12-19T13:08:42.170Z,5.08
2022-12-19T13:11:38.956Z,5.08
2022-12-19T13:14:45.104Z,5.05
2022-12-19T13:17:27.442Z,5.02
2022-12-19T13:20:00.695Z,4.98
2022-12-19T13:23:05.436Z,5.02
2022-12-19T13:25:55.629Z,4.96
2022-12-19T13:28:43.771Z,4.95
2022-12-19T13:31:23.814Z,4.95
2022-12-19T13:34:22.749Z,4.91
2022-12-19T13:39:59.502Z,4.88
2022-12-19T13:40:12.226Z,4.84
2022-12-19T13:43:09.893Z,4.93
2022-12-19T13:45:44.834Z,4.92
2022-12-19T13:48:23.069Z,4.93
2022-12-19T13:50:58.090Z,4.88
2022-12-19T13:53:32.043Z,4.93
2022-12-19T13:56:07.896Z,4.92
2022-12-19T13:58:48.959Z,4.90
2022-12-19T14:01:26.923Z,4.95
2022-12-19T14:04:07.641Z,4.90
2022-12-19T14:06:47.285Z,4.91
2022-12-19T14:11:26.714Z,4.93
2022-12-19T14:13:43.069Z,4.87
2022-12-19T14:15:33.158Z,4.82
2022-12-19T14:18:44.411Z,4.80
2022-12-19T14:22:05.275Z,4.71
2022-12-19T14:24:20.522Z,4.64
2022-12-19T14:28:24.645Z,4.61
2022-12-19T14:30:29.930Z,4.60
2022-12-19T14:33:46.309Z,4.54
2022-12-19T14:36:06.580Z,4.62
2022-12-19T14:39:23.275Z,4.70
2022-12-19T14:42:00.917Z,4.72
2022-12-19T14:52:51.828Z,4.84
2022-12-19T14:53:10.811Z,4.82
2022-12-19T14:54:26.939Z,4.87
2022-12-19T14:54:28.468Z,4.86
2022-12-19T14:59:34.810Z,4.90
2022-12-19T15:02:27.922Z,4.95
2022-12-19T15:05:06.603Z,4.99
2022-12-19T15:07:38.025Z,5.01
2022-12-19T15:11:06.609Z,5.02
2022-12-19T15:14:54.846Z,4.97
2022-12-19T15:16:27.890Z,4.99
2022-12-19T15:19:02.165Z,4.97
2022-12-19T15:21:35.136Z,4.95
2022-12-19T15:24:05.658Z,4.96
2022-12-19T15:26:38.533Z,4.93
2022-12-19T15:29:19.813Z,4.93
2022-12-19T15:31:55.031Z,4.99
2022-12-19T15:34:41.551Z,4.97
2022-12-19T15:37:16.839Z,4.91
2022-12-19T15:39:48.307Z,4.93
2022-12-19T15:42:24.886Z,4.95
2022-12-19T15:44:58.142Z,4.92
2022-12-19T15:47:35.098Z,4.91
2022-12-19T15:50:18.646Z,4.95
2022-12-19T15:52:49.329Z,4.96
2022-12-19T15:55:22.215Z,4.96
2022-12-19T15:57:57.518Z,5.01
2022-12-19T16:00:31.689Z,4.99
2022-12-19T16:05:55.537Z,4.98
2022-12-19T16:08:28.365Z,5.05
2022-12-19T16:11:02.132Z,5.04
2022-12-19T16:13:35.537Z,5.01
2022-12-19T16:16:15.098Z,5.02
2022-12-19T16:18:49.300Z,5.03
2022-12-19T16:21:33.223Z,5.07
2022-12-19T16:24:04.478Z,5.00
2022-12-19T16:26:38.021Z,4.97
2022-12-19T16:29:08.891Z,5.04
2022-12-19T16:31:39.280Z,5.05
2022-12-19T16:34:19.433Z,5.04
2022-12-19T16:36:49.991Z,5.07
2022-12-19T16:39:20.924Z,5.09
2022-12-19T16:41:51.337Z,4.98
2022-12-19T16:44:25.579Z,4.98
2022-12-19T16:46:56.087Z,5.02
2022-12-19T16:49:29.042Z,5.01
2022-12-19T16:51:59.400Z,5.05
2022-12-19T16:54:29.759Z,5.03
2022-12-19T16:57:00.171Z,5.00
2022-12-19T16:59:35.808Z,4.97
2022-12-19T17:02:35.558Z,4.95
2022-12-19T17:05:10.704Z,5.00
2022-12-19T17:07:41.066Z,4.98
2022-12-19T17:10:12.976Z,4.90
2022-12-19T17:12:45.098Z,4.88
2022-12-19T17:15:30.397Z,4.86
2022-12-19T17:18:02.914Z,4.90
2022-12-19T17:20:41.935Z,4.86
2022-12-19T17:23:18.782Z,4.85
2022-12-19T17:25:49.706Z,4.85
2022-12-19T17:28:20.988Z,4.84
2022-12-19T17:30:57.432Z,4.87
2022-12-19T17:33:34.525Z,4.88
2022-12-19T17:36:10.364Z,4.89
2022-12-19T17:38:40.744Z,4.95
2022-12-19T17:41:18.389Z,5.00
2022-12-19T17:43:48.666Z,4.98
2022-12-19T17:46:21.302Z,5.05
2022-12-19T17:48:54.278Z,5.09
2022-12-19T17:51:27.449Z,5.10
2022-12-19T17:53:57.808Z,5.10
2022-12-19T17:56:28.153Z,5.09
2022-12-19T17:58:58.591Z,5.13
2022-12-19T18:01:29.254Z,5.12
2022-12-19T18:03:59.857Z,4.97
2022-12-19T18:06:32.824Z,5.00
2022-12-19T18:09:03.793Z,5.00
2022-12-19T18:11:40.038Z,4.95
2022-12-19T18:14:12.591Z,4.95
2022-12-19T18:16:43.246Z,4.95
2022-12-19T18:19:20.711Z,4.97
2022-12-19T18:21:53.819Z,4.95
2022-12-19T18:24:24.295Z,4.92
2022-12-19T18:26:55.756Z,4.91
2022-12-19T18:29:26.298Z,4.91
2022-12-19T18:31:58.096Z,4.92
2022-12-19T18:34:36.406Z,4.91
2022-12-19T18:37:16.599Z,4.95
2022-12-19T18:39:46.898Z,4.95
2022-12-19T18:42:23.569Z,4.97
2022-12-19T18:44:53.864Z,4.97
2022-12-19T18:47:26.507Z,5.01
2022-12-19T18:49:56.808Z,5.05
2022-12-19T18:52:29.736Z,5.07
2022-12-19T18:55:00.078Z,5.14
2022-12-19T18:57:30.398Z,5.26
2022-12-19T19:00:00.716Z,5.35
2022-12-19T19:02:32.215Z,5.42
2022-12-19T19:05:02.723Z,5.38
2022-12-19T19:07:35.657Z,5.31
2022-12-19T19:10:18.784Z,5.34
2022-12-19T19:13:02.679Z,5.34
2022-12-19T19:15:38.441Z,5.31
2022-12-19T19:18:11.328Z,5.25
2022-12-19T19:20:43.883Z,5.24
2022-12-19T19:23:17.560Z,5.20
2022-12-19T19:25:48.403Z,5.25
2022-12-19T19:28:19.096Z,5.23
2022-12-19T19:30:49.768Z,5.23
2022-12-19T19:33:23.757Z,5.24
2022-12-19T19:35:59.783Z,5.18
2022-12-19T19:38:33.730Z,5.16
2022-12-19T19:41:04.007Z,5.15
2022-12-19T19:43:35.677Z,5.13
2022-12-19T19:46:06.481Z,5.12
2022-12-19T19:48:37.006Z,5.18
2022-12-19T19:51:07.850Z,5.16
2022-12-19T19:53:40.953Z,5.15
2022-12-19T19:56:11.520Z,5.15
2022-12-19T19:58:42.021Z,5.11
2022-12-19T20:01:13.694Z,5.16
2022-12-19T20:03:45.204Z,5.17
2022-12-19T20:06:15.743Z,5.24
2022-12-19T20:08:49.418Z,5.28
2022-12-19T20:11:20.586Z,5.30
2022-12-19T20:13:51.106Z,5.33
2022-12-19T20:16:22.576Z,5.34
2022-12-19T20:18:55.580Z,5.35
2022-12-19T20:21:26.602Z,5.40
2022-12-19T20:23:59.773Z,5.40
2022-12-19T20:26:30.336Z,5.41
2022-12-19T20:29:00.738Z,5.43
2022-12-19T20:31:32.577Z,5.41
2022-12-19T20:34:02.983Z,5.34
2022-12-19T20:36:33.286Z,5.29
2022-12-19T20:39:07.675Z,5.20
2022-12-19T20:41:38.238Z,5.18
2022-12-19T20:44:08.820Z,5.20
2022-12-19T20:46:39.233Z,5.22
2022-12-19T20:49:09.695Z,5.16
2022-12-19T20:51:40.741Z,5.16
2022-12-19T20:54:13.630Z,5.17
2022-12-19T20:56:45.190Z,5.23
2022-12-19T20:59:15.871Z,5.22
2022-12-19T21:01:46.423Z,5.23
2022-12-19T21:04:17.172Z,5.24
2022-12-19T21:06:47.752Z,5.24
2022-12-19T21:09:20.833Z,5.20
2022-12-19T21:11:51.193Z,5.16
2022-12-19T21:14:21.575Z,5.18
2022-12-19T21:16:51.937Z,5.17
2022-12-19T21:19:22.273Z,5.17
2022-12-19T21:21:52.564Z,5.13
2022-12-19T21:24:25.633Z,5.13
2022-12-19T21:26:58.270Z,5.10
2022-12-19T21:29:28.959Z,5.04
2022-12-19T21:31:59.293Z,5.04
2022-12-19T21:34:29.694Z,5.11
2022-12-19T21:37:00.110Z,5.17
2022-12-19T21:39:33.518Z,5.20
2022-12-19T21:42:03.709Z,5.29
2022-12-19T21:44:34.298Z,5.33
2022-12-19T21:47:04.825Z,5.30
2022-12-19T21:49:35.167Z,5.27
2022-12-19T21:52:05.461Z,5.22
2022-12-19T21:54:38.435Z,5.20
2022-12-19T21:57:08.846Z,5.21
2022-12-19T21:59:39.182Z,5.20
2022-12-19T22:02:11.521Z,5.22
2022-12-19T22:04:41.933Z,5.24
2022-12-19T22:07:12.228Z,5.26
2022-12-19T22:09:45.516Z,5.32
2022-12-19T22:12:16.242Z,5.34
2022-12-19T22:14:46.886Z,5.40
2022-12-19T22:17:17.470Z,5.40
2022-12-19T22:19:48.595Z,5.47
2022-12-19T22:22:18.962Z,5.55
2022-12-19T22:24:51.882Z,5.58
2022-12-19T22:27:22.202Z,5.65
2022-12-19T22:29:52.494Z,5.68
2022-12-19T22:32:22.832Z,5.68
2022-12-19T22:34:53.367Z,5.69
2022-12-19T22:37:23.768Z,5.67
2022-12-19T22:40:00.226Z,5.60
2022-12-19T22:42:31.062Z,5.52
2022-12-19T22:45:01.475Z,5.47
2022-12-19T22:47:31.819Z,5.39
2022-12-19T22:50:02.122Z,5.40
2022-12-19T22:52:32.387Z,5.39
2022-12-19T22:55:05.654Z,5.33
2022-12-19T22:57:36.192Z,5.35
2022-12-19T23:00:20.182Z,5.35
2022-12-19T23:02:50.713Z,5.29
2022-12-19T23:05:21.488Z,5.29
2022-12-19T23:07:52.041Z,5.31
2022-12-19T23:10:25.166Z,5.33
2022-12-19T23:12:55.505Z,5.38
2022-12-19T23:15:25.793Z,5.40
2022-12-19T23:17:56.124Z,5.42
2022-12-19T23:20:26.471Z,5.42
2022-12-19T23:22:56.734Z,5.40
2022-12-19T23:25:29.662Z,5.39
2022-12-19T23:28:00.429Z,5.38
2022-12-19T23:30:30.845Z,5.33
2022-12-19T23:33:01.232Z,5.32
2022-12-19T23:35:32.311Z,5.35
2022-12-19T23:38:02.673Z,5.36
2022-12-19T23:40:35.582Z,5.43
2022-12-19T23:43:06.149Z,5.51
2022-12-19T23:45:41.718Z,5.61
2022-12-19T23:48:12.233Z,5.58
2022-12-19T23:50:42.577Z,5.61
2022-12-19T23:53:12.942Z,5.63
2022-12-19T23:55:45.911Z,5.67
2022-12-19T23:58:22.323Z,5.71
